sensor_id;sensor_type;location;lat;lon;timestamp;P1;durP1;ratioP1;P2;durP2;ratioP2
58928;SDS011;44713;53.378;10.022;2023-02-22T00:01:03;34.25;;;16.17;;
58928;SDS011;44713;53.378;10.022;2023-02-22T00:03:43;41.55;;;16.20;;
58928;SDS011;44713;53.378;10.022;2023-02-22T00:06:14;45.55;;;15.98;;
58928;SDS011;44713;53.378;10.022;2023-02-22T00:08:41;34.58;;;15.70;;
58928;SDS011;44713;53.378;10.022;2023-02-22T00:11:07;47.85;;;18.27;;
58928;SDS011;44713;53.378;10.022;2023-02-22T00:13:34;48.17;;;16.15;;
58928;SDS011;44713;53.378;10.022;2023-02-22T00:16:01;53.83;;;15.40;;
58928;SDS011;44713;53.378;10.022;2023-02-22T00:18:27;37.30;;;14.57;;
58928;SDS011;44713;53.378;10.022;2023-02-22T00:20:56;48.30;;;15.43;;
58928;SDS011;44713;53.378;10.022;2023-02-22T00:23:24;50.15;;;14.68;;
58928;SDS011;44713;53.378;10.022;2023-02-22T00:25:50;55.58;;;16.85;;
58928;SDS011;44713;53.378;10.022;2023-02-22T00:28:16;46.70;;;15.75;;
58928;SDS011;44713;53.378;10.022;2023-02-22T00:30:43;61.22;;;16.35;;
58928;SDS011;44713;53.378;10.022;2023-02-22T00:33:09;45.17;;;14.93;;
58928;SDS011;44713;53.378;10.022;2023-02-22T00:35:35;42.63;;;14.80;;
58928;SDS011;44713;53.378;10.022;2023-02-22T00:38:01;42.40;;;15.15;;
58928;SDS011;44713;53.378;10.022;2023-02-22T00:40:29;54.80;;;16.42;;
58928;SDS011;44713;53.378;10.022;2023-02-22T00:43:00;50.05;;;15.77;;
58928;SDS011;44713;53.378;10.022;2023-02-22T00:45:28;34.72;;;15.05;;
58928;SDS011;44713;53.378;10.022;2023-02-22T00:47:55;38.88;;;16.33;;
58928;SDS011;44713;53.378;10.022;2023-02-22T00:50:21;40.83;;;16.98;;
58928;SDS011;44713;53.378;10.022;2023-02-22T00:52:48;38.00;;;16.95;;
58928;SDS011;44713;53.378;10.022;2023-02-22T00:55:20;37.20;;;15.60;;
58928;SDS011;44713;53.378;10.022;2023-02-22T00:57:47;37.60;;;16.58;;
58928;SDS011;44713;53.378;10.022;2023-02-22T01:00:15;45.95;;;17.17;;
58928;SDS011;44713;53.378;10.022;2023-02-22T01:02:42;37.55;;;15.98;;
58928;SDS011;44713;53.378;10.022;2023-02-22T01:05:09;46.58;;;17.98;;
58928;SDS011;44713;53.378;10.022;2023-02-22T01:07:39;38.20;;;17.38;;
58928;SDS011;44713;53.378;10.022;2023-02-22T01:10:06;38.58;;;16.13;;
58928;SDS011;44713;53.378;10.022;2023-02-22T01:12:33;53.03;;;17.90;;
58928;SDS011;44713;53.378;10.022;2023-02-22T01:14:59;41.65;;;16.30;;
58928;SDS011;44713;53.378;10.022;2023-02-22T01:17:25;36.15;;;15.40;;
58928;SDS011;44713;53.378;10.022;2023-02-22T01:19:51;42.78;;;16.98;;
58928;SDS011;44713;53.378;10.022;2023-02-22T01:22:18;39.55;;;16.60;;
58928;SDS011;44713;53.378;10.022;2023-02-22T01:24:43;34.35;;;14.18;;
58928;SDS011;44713;53.378;10.022;2023-02-22T01:27:10;43.75;;;16.95;;
58928;SDS011;44713;53.378;10.022;2023-02-22T01:29:35;43.85;;;15.95;;
58928;SDS011;44713;53.378;10.022;2023-02-22T01:32:01;43.05;;;16.52;;
58928;SDS011;44713;53.378;10.022;2023-02-22T01:34:26;44.42;;;17.10;;
58928;SDS011;44713;53.378;10.022;2023-02-22T01:36:52;55.80;;;17.25;;
58928;SDS011;44713;53.378;10.022;2023-02-22T01:39:17;47.38;;;16.50;;
58928;SDS011;44713;53.378;10.022;2023-02-22T01:41:46;44.65;;;16.65;;
58928;SDS011;44713;53.378;10.022;2023-02-22T01:47:00;39.75;;;14.15;;
58928;SDS011;44713;53.378;10.022;2023-02-22T01:49:32;44.17;;;16.73;;
58928;SDS011;44713;53.378;10.022;2023-02-22T01:52:02;42.90;;;16.73;;
58928;SDS011;44713;53.378;10.022;2023-02-22T01:54:40;44.78;;;15.57;;
58928;SDS011;44713;53.378;10.022;2023-02-22T01:57:25;48.83;;;17.75;;
58928;SDS011;44713;53.378;10.022;2023-02-22T02:00:01;46.13;;;16.63;;
58928;SDS011;44713;53.378;10.022;2023-02-22T02:02:38;52.88;;;18.77;;
58928;SDS011;44713;53.378;10.022;2023-02-22T02:05:08;50.47;;;18.05;;
58928;SDS011;44713;53.378;10.022;2023-02-22T02:07:35;56.33;;;18.25;;
58928;SDS011;44713;53.378;10.022;2023-02-22T02:10:03;45.53;;;16.25;;
58928;SDS011;44713;53.378;10.022;2023-02-22T02:12:33;44.90;;;16.55;;
58928;SDS011;44713;53.378;10.022;2023-02-22T02:17:40;45.35;;;17.60;;
58928;SDS011;44713;53.378;10.022;2023-02-22T02:20:18;44.38;;;16.35;;
58928;SDS011;44713;53.378;10.022;2023-02-22T02:22:55;43.38;;;16.35;;
58928;SDS011;44713;53.378;10.022;2023-02-22T02:37:00;38.60;;;14.77;;
58928;SDS011;44713;53.378;10.022;2023-02-22T02:42:32;38.00;;;14.07;;
58928;SDS011;44713;53.378;10.022;2023-02-22T02:45:04;39.15;;;14.20;;
58928;SDS011;44713;53.378;10.022;2023-02-22T02:47:36;40.72;;;15.40;;
58928;SDS011;44713;53.378;10.022;2023-02-22T02:50:12;37.88;;;13.38;;
58928;SDS011;44713;53.378;10.022;2023-02-22T02:52:42;39.75;;;13.52;;
58928;SDS011;44713;53.378;10.022;2023-02-22T02:55:10;43.97;;;15.52;;
58928;SDS011;44713;53.378;10.022;2023-02-22T02:57:39;50.78;;;16.00;;
58928;SDS011;44713;53.378;10.022;2023-02-22T03:00:05;41.28;;;15.45;;
58928;SDS011;44713;53.378;10.022;2023-02-22T03:02:57;44.78;;;16.25;;
58928;SDS011;44713;53.378;10.022;2023-02-22T03:06:07;44.92;;;16.25;;
58928;SDS011;44713;53.378;10.022;2023-02-22T03:08:56;42.72;;;16.15;;
58928;SDS011;44713;53.378;10.022;2023-02-22T03:11:28;46.88;;;16.58;;
58928;SDS011;44713;53.378;10.022;2023-02-22T03:14:17;36.05;;;13.93;;
58928;SDS011;44713;53.378;10.022;2023-02-22T03:19:50;44.60;;;17.73;;
58928;SDS011;44713;53.378;10.022;2023-02-22T03:24:53;56.25;;;18.65;;
58928;SDS011;44713;53.378;10.022;2023-02-22T03:30:35;50.92;;;18.20;;
58928;SDS011;44713;53.378;10.022;2023-02-22T03:33:07;47.45;;;17.95;;
58928;SDS011;44713;53.378;10.022;2023-02-22T03:35:40;47.03;;;17.90;;
58928;SDS011;44713;53.378;10.022;2023-02-22T03:38:21;53.45;;;16.73;;
58928;SDS011;44713;53.378;10.022;2023-02-22T03:40:51;52.55;;;19.30;;
58928;SDS011;44713;53.378;10.022;2023-02-22T03:43:24;47.72;;;18.40;;
58928;SDS011;44713;53.378;10.022;2023-02-22T03:45:56;61.70;;;20.37;;
58928;SDS011;44713;53.378;10.022;2023-02-22T03:48:31;60.80;;;20.00;;
58928;SDS011;44713;53.378;10.022;2023-02-22T03:51:27;59.53;;;20.50;;
58928;SDS011;44713;53.378;10.022;2023-02-22T03:53:57;54.78;;;18.60;;
58928;SDS011;44713;53.378;10.022;2023-02-22T03:56:28;58.25;;;19.98;;
58928;SDS011;44713;53.378;10.022;2023-02-22T03:59:06;53.65;;;19.63;;
58928;SDS011;44713;53.378;10.022;2023-02-22T04:01:33;61.20;;;20.58;;
58928;SDS011;44713;53.378;10.022;2023-02-22T04:04:00;66.75;;;19.98;;
58928;SDS011;44713;53.378;10.022;2023-02-22T04:06:26;59.97;;;21.40;;
58928;SDS011;44713;53.378;10.022;2023-02-22T04:08:53;63.08;;;19.50;;
58928;SDS011;44713;53.378;10.022;2023-02-22T04:11:20;55.47;;;20.63;;
58928;SDS011;44713;53.378;10.022;2023-02-22T04:13:46;56.30;;;18.98;;
58928;SDS011;44713;53.378;10.022;2023-02-22T04:16:11;57.40;;;19.67;;
58928;SDS011;44713;53.378;10.022;2023-02-22T04:18:38;60.92;;;20.45;;
58928;SDS011;44713;53.378;10.022;2023-02-22T04:21:04;53.83;;;19.95;;
58928;SDS011;44713;53.378;10.022;2023-02-22T04:23:38;59.17;;;20.02;;
58928;SDS011;44713;53.378;10.022;2023-02-22T04:26:03;66.47;;;19.13;;
58928;SDS011;44713;53.378;10.022;2023-02-22T04:28:29;67.53;;;21.75;;
58928;SDS011;44713;53.378;10.022;2023-02-22T04:31:15;59.47;;;19.30;;
58928;SDS011;44713;53.378;10.022;2023-02-22T04:33:42;57.50;;;19.90;;
58928;SDS011;44713;53.378;10.022;2023-02-22T04:36:09;59.20;;;19.83;;
58928;SDS011;44713;53.378;10.022;2023-02-22T04:38:36;63.22;;;20.75;;
58928;SDS011;44713;53.378;10.022;2023-02-22T04:41:01;66.15;;;20.85;;
58928;SDS011;44713;53.378;10.022;2023-02-22T04:43:26;72.97;;;20.95;;
58928;SDS011;44713;53.378;10.022;2023-02-22T04:45:59;65.88;;;19.83;;
58928;SDS011;44713;53.378;10.022;2023-02-22T04:48:24;53.95;;;18.45;;
58928;SDS011;44713;53.378;10.022;2023-02-22T04:50:50;67.68;;;19.95;;
58928;SDS011;44713;53.378;10.022;2023-02-22T04:53:16;66.93;;;20.35;;
58928;SDS011;44713;53.378;10.022;2023-02-22T04:55:42;61.22;;;20.67;;
58928;SDS011;44713;53.378;10.022;2023-02-22T04:58:07;132.57;;;22.70;;
58928;SDS011;44713;53.378;10.022;2023-02-22T05:00:33;65.57;;;20.40;;
58928;SDS011;44713;53.378;10.022;2023-02-22T05:03:00;63.30;;;21.75;;
58928;SDS011;44713;53.378;10.022;2023-02-22T05:05:26;60.95;;;20.42;;
58928;SDS011;44713;53.378;10.022;2023-02-22T05:07:51;62.80;;;20.20;;
58928;SDS011;44713;53.378;10.022;2023-02-22T05:10:17;71.53;;;21.67;;
58928;SDS011;44713;53.378;10.022;2023-02-22T05:12:43;65.57;;;21.80;;
58928;SDS011;44713;53.378;10.022;2023-02-22T05:15:08;67.70;;;22.30;;
58928;SDS011;44713;53.378;10.022;2023-02-22T05:17:34;68.53;;;21.85;;
58928;SDS011;44713;53.378;10.022;2023-02-22T05:20:00;71.10;;;21.88;;
58928;SDS011;44713;53.378;10.022;2023-02-22T05:22:27;71.72;;;21.50;;
58928;SDS011;44713;53.378;10.022;2023-02-22T05:24:52;59.08;;;20.63;;
58928;SDS011;44713;53.378;10.022;2023-02-22T05:27:18;70.57;;;21.58;;
58928;SDS011;44713;53.378;10.022;2023-02-22T05:29:43;61.58;;;21.70;;
58928;SDS011;44713;53.378;10.022;2023-02-22T05:32:09;65.85;;;21.08;;
58928;SDS011;44713;53.378;10.022;2023-02-22T05:34:36;79.63;;;23.45;;
58928;SDS011;44713;53.378;10.022;2023-02-22T05:37:02;63.13;;;22.58;;
58928;SDS011;44713;53.378;10.022;2023-02-22T05:39:28;71.75;;;24.27;;
58928;SDS011;44713;53.378;10.022;2023-02-22T05:41:53;69.25;;;24.77;;
58928;SDS011;44713;53.378;10.022;2023-02-22T05:44:19;86.50;;;24.27;;
58928;SDS011;44713;53.378;10.022;2023-02-22T05:46:44;71.63;;;24.20;;
58928;SDS011;44713;53.378;10.022;2023-02-22T05:49:09;94.65;;;24.83;;
58928;SDS011;44713;53.378;10.022;2023-02-22T05:51:35;70.43;;;23.42;;
58928;SDS011;44713;53.378;10.022;2023-02-22T05:54:00;64.90;;;21.25;;
58928;SDS011;44713;53.378;10.022;2023-02-22T05:56:26;67.78;;;23.33;;
58928;SDS011;44713;53.378;10.022;2023-02-22T05:58:54;74.88;;;22.95;;
58928;SDS011;44713;53.378;10.022;2023-02-22T06:01:21;86.43;;;23.70;;
58928;SDS011;44713;53.378;10.022;2023-02-22T06:03:47;67.97;;;22.90;;
58928;SDS011;44713;53.378;10.022;2023-02-22T06:06:13;82.90;;;24.20;;
58928;SDS011;44713;53.378;10.022;2023-02-22T06:08:39;89.25;;;24.25;;
58928;SDS011;44713;53.378;10.022;2023-02-22T06:11:05;88.13;;;24.10;;
58928;SDS011;44713;53.378;10.022;2023-02-22T06:13:30;68.60;;;24.00;;
58928;SDS011;44713;53.378;10.022;2023-02-22T06:15:55;197.95;;;25.70;;
58928;SDS011;44713;53.378;10.022;2023-02-22T06:18:21;75.97;;;23.70;;
58928;SDS011;44713;53.378;10.022;2023-02-22T06:20:46;73.68;;;23.80;;
58928;SDS011;44713;53.378;10.022;2023-02-22T06:23:12;79.97;;;24.60;;
58928;SDS011;44713;53.378;10.022;2023-02-22T06:25:37;64.22;;;24.08;;
58928;SDS011;44713;53.378;10.022;2023-02-22T06:28:02;75.63;;;23.67;;
58928;SDS011;44713;53.378;10.022;2023-02-22T06:30:29;67.95;;;22.85;;
58928;SDS011;44713;53.378;10.022;2023-02-22T06:32:55;62.25;;;22.70;;
58928;SDS011;44713;53.378;10.022;2023-02-22T06:35:20;71.07;;;24.25;;
58928;SDS011;44713;53.378;10.022;2023-02-22T06:37:46;78.63;;;25.08;;
58928;SDS011;44713;53.378;10.022;2023-02-22T06:40:12;63.45;;;22.80;;
58928;SDS011;44713;53.378;10.022;2023-02-22T06:42:38;61.53;;;22.80;;
58928;SDS011;44713;53.378;10.022;2023-02-22T06:45:04;70.25;;;24.52;;
58928;SDS011;44713;53.378;10.022;2023-02-22T06:47:29;69.90;;;23.58;;
58928;SDS011;44713;53.378;10.022;2023-02-22T06:49:55;69.90;;;23.98;;
58928;SDS011;44713;53.378;10.022;2023-02-22T06:52:22;70.03;;;24.02;;
58928;SDS011;44713;53.378;10.022;2023-02-22T06:54:48;73.20;;;22.60;;
58928;SDS011;44713;53.378;10.022;2023-02-22T06:57:14;66.82;;;23.42;;
58928;SDS011;44713;53.378;10.022;2023-02-22T06:59:40;61.53;;;23.13;;
58928;SDS011;44713;53.378;10.022;2023-02-22T07:02:05;65.70;;;23.92;;
58928;SDS011;44713;53.378;10.022;2023-02-22T07:04:30;58.35;;;22.00;;
58928;SDS011;44713;53.378;10.022;2023-02-22T07:06:56;64.40;;;23.65;;
58928;SDS011;44713;53.378;10.022;2023-02-22T07:09:21;66.18;;;24.23;;
58928;SDS011;44713;53.378;10.022;2023-02-22T07:11:46;66.18;;;24.67;;
58928;SDS011;44713;53.378;10.022;2023-02-22T07:14:12;58.65;;;22.80;;
58928;SDS011;44713;53.378;10.022;2023-02-22T07:16:37;66.38;;;23.65;;
58928;SDS011;44713;53.378;10.022;2023-02-22T07:19:02;66.43;;;24.80;;
58928;SDS011;44713;53.378;10.022;2023-02-22T07:21:28;67.07;;;25.67;;
58928;SDS011;44713;53.378;10.022;2023-02-22T07:23:55;60.00;;;23.38;;
58928;SDS011;44713;53.378;10.022;2023-02-22T07:26:34;67.38;;;23.52;;
58928;SDS011;44713;53.378;10.022;2023-02-22T07:29:11;64.90;;;24.27;;
58928;SDS011;44713;53.378;10.022;2023-02-22T07:31:37;70.07;;;25.55;;
58928;SDS011;44713;53.378;10.022;2023-02-22T07:34:03;66.75;;;24.10;;
58928;SDS011;44713;53.378;10.022;2023-02-22T07:36:28;58.38;;;22.95;;
58928;SDS011;44713;53.378;10.022;2023-02-22T07:38:53;72.53;;;25.42;;
58928;SDS011;44713;53.378;10.022;2023-02-22T07:41:19;65.82;;;24.30;;
58928;SDS011;44713;53.378;10.022;2023-02-22T07:43:46;72.35;;;25.25;;
58928;SDS011;44713;53.378;10.022;2023-02-22T07:46:12;66.00;;;23.20;;
58928;SDS011;44713;53.378;10.022;2023-02-22T07:48:37;64.90;;;23.60;;
58928;SDS011;44713;53.378;10.022;2023-02-22T07:51:03;65.60;;;23.50;;
58928;SDS011;44713;53.378;10.022;2023-02-22T07:53:30;71.28;;;24.08;;
58928;SDS011;44713;53.378;10.022;2023-02-22T07:55:58;70.43;;;24.33;;
58928;SDS011;44713;53.378;10.022;2023-02-22T07:58:25;68.63;;;25.35;;
58928;SDS011;44713;53.378;10.022;2023-02-22T08:00:52;67.70;;;23.13;;
58928;SDS011;44713;53.378;10.022;2023-02-22T08:03:18;64.63;;;23.48;;
58928;SDS011;44713;53.378;10.022;2023-02-22T08:05:45;60.28;;;22.80;;
58928;SDS011;44713;53.378;10.022;2023-02-22T08:08:12;60.50;;;22.25;;
58928;SDS011;44713;53.378;10.022;2023-02-22T08:10:40;62.03;;;21.95;;
58928;SDS011;44713;53.378;10.022;2023-02-22T08:13:06;58.40;;;21.77;;
58928;SDS011;44713;53.378;10.022;2023-02-22T08:15:33;51.17;;;20.75;;
58928;SDS011;44713;53.378;10.022;2023-02-22T08:18:00;52.08;;;19.95;;
58928;SDS011;44713;53.378;10.022;2023-02-22T08:20:27;55.35;;;20.00;;
58928;SDS011;44713;53.378;10.022;2023-02-22T08:22:54;55.20;;;21.08;;
58928;SDS011;44713;53.378;10.022;2023-02-22T08:25:20;55.03;;;21.27;;
58928;SDS011;44713;53.378;10.022;2023-02-22T08:27:49;51.67;;;19.60;;
58928;SDS011;44713;53.378;10.022;2023-02-22T08:30:19;52.00;;;20.60;;
58928;SDS011;44713;53.378;10.022;2023-02-22T08:32:46;52.15;;;19.98;;
58928;SDS011;44713;53.378;10.022;2023-02-22T08:35:13;56.95;;;20.63;;
58928;SDS011;44713;53.378;10.022;2023-02-22T08:37:43;55.30;;;21.55;;
58928;SDS011;44713;53.378;10.022;2023-02-22T08:40:20;49.58;;;19.27;;
58928;SDS011;44713;53.378;10.022;2023-02-22T08:42:47;53.28;;;20.50;;
58928;SDS011;44713;53.378;10.022;2023-02-22T08:45:13;49.70;;;20.55;;
58928;SDS011;44713;53.378;10.022;2023-02-22T08:47:39;47.70;;;19.98;;
58928;SDS011;44713;53.378;10.022;2023-02-22T08:50:05;53.25;;;22.08;;
58928;SDS011;44713;53.378;10.022;2023-02-22T08:52:31;56.60;;;20.67;;
58928;SDS011;44713;53.378;10.022;2023-02-22T08:54:57;54.22;;;21.52;;
58928;SDS011;44713;53.378;10.022;2023-02-22T08:57:22;52.92;;;20.38;;
58928;SDS011;44713;53.378;10.022;2023-02-22T08:59:47;57.25;;;21.95;;
58928;SDS011;44713;53.378;10.022;2023-02-22T09:02:14;56.15;;;21.65;;
58928;SDS011;44713;53.378;10.022;2023-02-22T09:04:41;54.08;;;21.75;;
58928;SDS011;44713;53.378;10.022;2023-02-22T09:07:06;51.17;;;21.63;;
58928;SDS011;44713;53.378;10.022;2023-02-22T09:09:32;49.63;;;21.67;;
58928;SDS011;44713;53.378;10.022;2023-02-22T09:11:58;51.47;;;21.73;;
58928;SDS011;44713;53.378;10.022;2023-02-22T09:14:23;52.05;;;21.58;;
58928;SDS011;44713;53.378;10.022;2023-02-22T09:16:49;52.85;;;22.10;;
58928;SDS011;44713;53.378;10.022;2023-02-22T09:19:14;52.20;;;22.33;;
58928;SDS011;44713;53.378;10.022;2023-02-22T09:21:39;45.17;;;20.73;;
58928;SDS011;44713;53.378;10.022;2023-02-22T09:24:05;48.33;;;21.17;;
58928;SDS011;44713;53.378;10.022;2023-02-22T09:26:35;46.35;;;22.00;;
58928;SDS011;44713;53.378;10.022;2023-02-22T09:29:11;47.30;;;21.08;;
58928;SDS011;44713;53.378;10.022;2023-02-22T09:31:39;45.50;;;20.48;;
58928;SDS011;44713;53.378;10.022;2023-02-22T09:34:06;45.65;;;19.92;;
58928;SDS011;44713;53.378;10.022;2023-02-22T09:36:47;48.08;;;21.95;;
58928;SDS011;44713;53.378;10.022;2023-02-22T09:39:14;47.22;;;21.23;;
58928;SDS011;44713;53.378;10.022;2023-02-22T09:41:54;44.80;;;20.67;;
58928;SDS011;44713;53.378;10.022;2023-02-22T09:47:33;45.92;;;22.05;;
58928;SDS011;44713;53.378;10.022;2023-02-22T09:50:20;44.13;;;20.70;;
58928;SDS011;44713;53.378;10.022;2023-02-22T09:55:21;45.75;;;21.83;;
58928;SDS011;44713;53.378;10.022;2023-02-22T09:57:55;42.00;;;21.35;;
58928;SDS011;44713;53.378;10.022;2023-02-22T10:00:26;42.63;;;21.92;;
58928;SDS011;44713;53.378;10.022;2023-02-22T10:05:33;44.30;;;22.23;;
58928;SDS011;44713;53.378;10.022;2023-02-22T10:08:07;44.97;;;23.58;;
58928;SDS011;44713;53.378;10.022;2023-02-22T10:10:37;46.88;;;22.42;;
58928;SDS011;44713;53.378;10.022;2023-02-22T10:18:40;46.55;;;24.65;;
58928;SDS011;44713;53.378;10.022;2023-02-22T10:23:46;46.22;;;23.48;;
58928;SDS011;44713;53.378;10.022;2023-02-22T10:26:24;47.33;;;23.85;;
58928;SDS011;44713;53.378;10.022;2023-02-22T10:28:57;51.05;;;24.70;;
58928;SDS011;44713;53.378;10.022;2023-02-22T10:31:29;49.30;;;25.15;;
58928;SDS011;44713;53.378;10.022;2023-02-22T10:34:02;49.72;;;24.85;;
58928;SDS011;44713;53.378;10.022;2023-02-22T10:36:31;48.70;;;25.83;;
58928;SDS011;44713;53.378;10.022;2023-02-22T10:39:10;50.03;;;25.08;;
58928;SDS011;44713;53.378;10.022;2023-02-22T10:41:51;48.35;;;26.02;;
58928;SDS011;44713;53.378;10.022;2023-02-22T10:44:19;50.05;;;26.17;;
58928;SDS011;44713;53.378;10.022;2023-02-22T10:46:44;47.42;;;25.73;;
58928;SDS011;44713;53.378;10.022;2023-02-22T10:49:11;48.60;;;25.90;;
58928;SDS011;44713;53.378;10.022;2023-02-22T10:51:59;45.10;;;24.40;;
58928;SDS011;44713;53.378;10.022;2023-02-22T10:54:44;48.00;;;25.73;;
58928;SDS011;44713;53.378;10.022;2023-02-22T10:57:12;48.67;;;25.17;;
58928;SDS011;44713;53.378;10.022;2023-02-22T10:59:39;42.10;;;22.88;;
58928;SDS011;44713;53.378;10.022;2023-02-22T11:02:08;43.50;;;23.77;;
58928;SDS011;44713;53.378;10.022;2023-02-22T11:04:46;40.92;;;23.08;;
58928;SDS011;44713;53.378;10.022;2023-02-22T11:09:54;41.28;;;23.48;;
58928;SDS011;44713;53.378;10.022;2023-02-22T11:14:55;34.38;;;20.63;;
58928;SDS011;44713;53.378;10.022;2023-02-22T11:17:23;39.53;;;22.13;;
58928;SDS011;44713;53.378;10.022;2023-02-22T11:19:53;35.78;;;21.17;;
58928;SDS011;44713;53.378;10.022;2023-02-22T11:22:23;37.25;;;20.70;;
58928;SDS011;44713;53.378;10.022;2023-02-22T11:24:53;35.72;;;19.00;;
58928;SDS011;44713;53.378;10.022;2023-02-22T11:32:59;32.70;;;18.15;;
58928;SDS011;44713;53.378;10.022;2023-02-22T11:35:59;29.27;;;17.02;;
58928;SDS011;44713;53.378;10.022;2023-02-22T11:38:32;30.83;;;17.00;;
58928;SDS011;44713;53.378;10.022;2023-02-22T11:41:17;32.88;;;18.48;;
58928;SDS011;44713;53.378;10.022;2023-02-22T11:43:47;35.22;;;16.63;;
58928;SDS011;44713;53.378;10.022;2023-02-22T11:46:21;30.83;;;18.45;;
58928;SDS011;44713;53.378;10.022;2023-02-22T11:48:57;34.15;;;19.00;;
58928;SDS011;44713;53.378;10.022;2023-02-22T11:51:31;35.30;;;18.83;;
58928;SDS011;44713;53.378;10.022;2023-02-22T12:02:59;29.98;;;16.15;;
58928;SDS011;44713;53.378;10.022;2023-02-22T12:08:45;28.20;;;15.40;;
58928;SDS011;44713;53.378;10.022;2023-02-22T12:11:32;27.25;;;15.68;;
58928;SDS011;44713;53.378;10.022;2023-02-22T12:22:31;26.95;;;14.90;;
58928;SDS011;44713;53.378;10.022;2023-02-22T12:25:19;24.33;;;14.52;;
58928;SDS011;44713;53.378;10.022;2023-02-22T12:27:54;24.25;;;13.55;;
58928;SDS011;44713;53.378;10.022;2023-02-22T12:30:24;23.83;;;13.57;;
58928;SDS011;44713;53.378;10.022;2023-02-22T12:32:54;24.45;;;14.10;;
58928;SDS011;44713;53.378;10.022;2023-02-22T12:35:24;24.10;;;13.65;;
58928;SDS011;44713;53.378;10.022;2023-02-22T12:37:58;22.55;;;12.52;;
58928;SDS011;44713;53.378;10.022;2023-02-22T12:40:44;23.98;;;13.52;;
58928;SDS011;44713;53.378;10.022;2023-02-22T12:43:21;21.25;;;12.63;;
58928;SDS011;44713;53.378;10.022;2023-02-22T12:46:03;24.83;;;13.25;;
58928;SDS011;44713;53.378;10.022;2023-02-22T12:48:41;20.75;;;12.85;;
58928;SDS011;44713;53.378;10.022;2023-02-22T12:56:46;24.05;;;13.73;;
58928;SDS011;44713;53.378;10.022;2023-02-22T13:01:51;21.17;;;11.27;;
58928;SDS011;44713;53.378;10.022;2023-02-22T13:04:20;22.27;;;12.15;;
58928;SDS011;44713;53.378;10.022;2023-02-22T13:06:52;20.63;;;11.35;;
58928;SDS011;44713;53.378;10.022;2023-02-22T13:12:26;22.13;;;11.90;;
58928;SDS011;44713;53.378;10.022;2023-02-22T13:20:28;17.23;;;10.82;;
58928;SDS011;44713;53.378;10.022;2023-02-22T13:23:04;16.80;;;9.25;;
58928;SDS011;44713;53.378;10.022;2023-02-22T13:25:40;15.90;;;10.13;;
58928;SDS011;44713;53.378;10.022;2023-02-22T13:30:56;15.10;;;8.57;;
58928;SDS011;44713;53.378;10.022;2023-02-22T13:44:46;11.23;;;7.32;;
58928;SDS011;44713;53.378;10.022;2023-02-22T13:48:44;10.70;;;6.47;;
58928;SDS011;44713;53.378;10.022;2023-02-22T13:50:49;8.70;;;6.28;;
58928;SDS011;44713;53.378;10.022;2023-02-22T13:53:26;9.68;;;6.03;;
58928;SDS011;44713;53.378;10.022;2023-02-22T13:55:57;7.75;;;5.82;;
58928;SDS011;44713;53.378;10.022;2023-02-22T13:58:24;8.05;;;5.60;;
58928;SDS011;44713;53.378;10.022;2023-02-22T14:00:51;9.57;;;5.50;;
58928;SDS011;44713;53.378;10.022;2023-02-22T14:05:52;9.27;;;6.13;;
58928;SDS011;44713;53.378;10.022;2023-02-22T14:13:30;10.45;;;6.57;;
58928;SDS011;44713;53.378;10.022;2023-02-22T14:16:19;12.27;;;7.05;;
58928;SDS011;44713;53.378;10.022;2023-02-22T14:18:47;8.63;;;6.30;;
58928;SDS011;44713;53.378;10.022;2023-02-22T14:21:20;9.30;;;6.28;;
58928;SDS011;44713;53.378;10.022;2023-02-22T14:23:47;12.02;;;6.70;;
58928;SDS011;44713;53.378;10.022;2023-02-22T14:26:15;11.32;;;6.85;;
58928;SDS011;44713;53.378;10.022;2023-02-22T14:28:58;12.35;;;7.18;;
58928;SDS011;44713;53.378;10.022;2023-02-22T14:36:50;11.63;;;7.57;;
58928;SDS011;44713;53.378;10.022;2023-02-22T14:39:22;11.88;;;7.22;;
58928;SDS011;44713;53.378;10.022;2023-02-22T14:42:07;11.32;;;6.80;;
58928;SDS011;44713;53.378;10.022;2023-02-22T14:47:14;12.50;;;7.70;;
58928;SDS011;44713;53.378;10.022;2023-02-22T14:49:45;17.13;;;6.93;;
58928;SDS011;44713;53.378;10.022;2023-02-22T14:52:20;15.70;;;8.38;;
58928;SDS011;44713;53.378;10.022;2023-02-22T15:00:52;13.30;;;7.70;;
58928;SDS011;44713;53.378;10.022;2023-02-22T15:05:46;11.38;;;8.07;;
58928;SDS011;44713;53.378;10.022;2023-02-22T15:08:14;13.52;;;8.35;;
58928;SDS011;44713;53.378;10.022;2023-02-22T15:10:43;14.27;;;8.38;;
58928;SDS011;44713;53.378;10.022;2023-02-22T15:13:13;12.35;;;7.25;;
58928;SDS011;44713;53.378;10.022;2023-02-22T15:15:52;13.23;;;8.18;;
58928;SDS011;44713;53.378;10.022;2023-02-22T15:21:02;15.15;;;7.50;;
58928;SDS011;44713;53.378;10.022;2023-02-22T15:26:26;16.10;;;9.60;;
58928;SDS011;44713;53.378;10.022;2023-02-22T15:28:59;17.73;;;9.63;;
58928;SDS011;44713;53.378;10.022;2023-02-22T15:31:32;18.02;;;10.75;;
58928;SDS011;44713;53.378;10.022;2023-02-22T15:34:14;15.35;;;9.02;;
58928;SDS011;44713;53.378;10.022;2023-02-22T15:36:57;18.17;;;10.35;;
58928;SDS011;44713;53.378;10.022;2023-02-22T15:39:36;15.18;;;9.55;;
58928;SDS011;44713;53.378;10.022;2023-02-22T15:44:49;16.00;;;10.05;;
58928;SDS011;44713;53.378;10.022;2023-02-22T15:58:08;20.80;;;12.18;;
58928;SDS011;44713;53.378;10.022;2023-02-22T16:00:37;18.48;;;12.10;;
58928;SDS011;44713;53.378;10.022;2023-02-22T16:03:15;22.52;;;12.73;;
58928;SDS011;44713;53.378;10.022;2023-02-22T16:05:50;20.40;;;12.63;;
58928;SDS011;44713;53.378;10.022;2023-02-22T16:13:22;22.92;;;11.82;;
58928;SDS011;44713;53.378;10.022;2023-02-22T16:15:55;19.80;;;11.13;;
58928;SDS011;44713;53.378;10.022;2023-02-22T16:18:30;22.52;;;11.55;;
58928;SDS011;44713;53.378;10.022;2023-02-22T16:23:30;21.13;;;12.20;;
58928;SDS011;44713;53.378;10.022;2023-02-22T16:29:00;20.83;;;11.43;;
58928;SDS011;44713;53.378;10.022;2023-02-22T16:31:31;20.15;;;10.90;;
58928;SDS011;44713;53.378;10.022;2023-02-22T16:33:59;22.13;;;11.85;;
58928;SDS011;44713;53.378;10.022;2023-02-22T16:36:41;20.13;;;11.10;;
58928;SDS011;44713;53.378;10.022;2023-02-22T16:41:49;20.17;;;11.73;;
58928;SDS011;44713;53.378;10.022;2023-02-22T16:44:15;21.27;;;11.68;;
58928;SDS011;44713;53.378;10.022;2023-02-22T16:46:41;21.77;;;12.00;;
58928;SDS011;44713;53.378;10.022;2023-02-22T16:49:10;20.80;;;11.90;;
58928;SDS011;44713;53.378;10.022;2023-02-22T16:51:44;19.92;;;11.43;;
58928;SDS011;44713;53.378;10.022;2023-02-22T16:54:14;21.38;;;11.85;;
58928;SDS011;44713;53.378;10.022;2023-02-22T16:56:44;20.38;;;11.80;;
58928;SDS011;44713;53.378;10.022;2023-02-22T16:59:10;18.67;;;11.20;;
58928;SDS011;44713;53.378;10.022;2023-02-22T17:01:38;26.35;;;12.98;;
58928;SDS011;44713;53.378;10.022;2023-02-22T17:04:14;24.77;;;12.85;;
58928;SDS011;44713;53.378;10.022;2023-02-22T17:06:42;23.05;;;12.43;;
58928;SDS011;44713;53.378;10.022;2023-02-22T17:09:08;22.10;;;12.40;;
58928;SDS011;44713;53.378;10.022;2023-02-22T17:11:33;22.50;;;12.57;;